createdAt,value
2018-09-21T00:00:54.626Z,60.82
2018-09-21T00:04:05.194Z,60.83
2018-09-21T00:07:10.733Z,60.85
2018-09-21T00:10:16.160Z,60.60
2018-09-21T00:13:21.489Z,61.42
2018-09-21T00:16:26.861Z,61.60
2018-09-21T00:19:32.678Z,62.00
2018-09-21T00:22:38.017Z,60.75
2018-09-21T00:25:43.366Z,61.24
2018-09-21T00:28:48.770Z,61.09
2018-09-21T00:31:54.170Z,60.96
2018-09-21T00:34:59.543Z,60.45
2018-09-21T00:38:05.010Z,61.10
2018-09-21T00:41:10.422Z,61.64
2018-09-21T00:44:15.794Z,62.17
2018-09-21T00:47:22.186Z,62.47
2018-09-21T00:50:27.545Z,61.94
2018-09-21T00:53:32.901Z,62.24
2018-09-21T00:56:38.312Z,62.33
2018-09-21T00:59:43.805Z,62.49
2018-09-21T01:02:49.361Z,61.81
2018-09-21T01:05:54.738Z,61.87
2018-09-21T01:09:00.122Z,63.10
2018-09-21T01:12:05.490Z,63.05
2018-09-21T01:15:10.828Z,63.17
2018-09-21T01:18:16.837Z,63.80
2018-09-21T01:21:22.214Z,64.23
2018-09-21T01:24:27.644Z,64.39
2018-09-21T01:27:33.131Z,65.67
2018-09-21T01:30:38.594Z,65.34
2018-09-21T01:33:43.994Z,65.53
2018-09-21T01:36:49.870Z,64.94
2018-09-21T01:39:55.226Z,65.61
2018-09-21T01:43:00.684Z,65.45
2018-09-21T01:46:06.594Z,65.23
2018-09-21T01:49:12.093Z,64.63
2018-09-21T01:52:17.450Z,64.52
2018-09-21T01:55:22.815Z,64.10
2018-09-21T01:58:28.290Z,64.21
2018-09-21T02:01:33.645Z,64.48
2018-09-21T02:04:39.942Z,65.47
2018-09-21T02:07:45.386Z,64.67
2018-09-21T02:10:50.745Z,64.46
2018-09-21T02:13:56.111Z,64.77
2018-09-21T02:17:01.571Z,63.82
2018-09-21T02:20:06.914Z,63.68
2018-09-21T02:23:12.258Z,63.07
2018-09-21T02:26:17.734Z,63.01
2018-09-21T02:29:23.206Z,63.66
2018-09-21T02:32:28.596Z,61.93
2018-09-21T02:35:33.947Z,61.64
2018-09-21T02:38:39.406Z,60.49
2018-09-21T02:41:44.762Z,60.88
2018-09-21T02:44:50.246Z,62.14
2018-09-21T02:47:55.767Z,62.24
2018-09-21T02:51:01.214Z,61.96
2018-09-21T02:54:07.506Z,62.43
2018-09-21T02:57:13.210Z,63.00
2018-09-21T03:00:18.871Z,62.55
2018-09-21T03:03:24.377Z,62.73
2018-09-21T03:06:29.747Z,62.29
2018-09-21T03:09:35.207Z,62.39
2018-09-21T03:12:40.562Z,61.27
2018-09-21T03:15:45.902Z,61.52
2018-09-21T03:18:51.367Z,60.67
2018-09-21T03:21:56.758Z,61.53
2018-09-21T03:25:02.450Z,61.12
2018-09-21T03:28:07.889Z,61.11
2018-09-21T03:31:13.239Z,60.86
2018-09-21T03:34:18.636Z,60.76
2018-09-21T03:37:24.202Z,60.52
2018-09-21T03:40:29.746Z,61.21
2018-09-21T03:43:35.210Z,60.09
2018-09-21T03:46:40.751Z,61.62
2018-09-21T03:49:46.202Z,61.64
2018-09-21T03:52:51.641Z,62.18
2018-09-21T03:55:57.693Z,62.13
2018-09-21T03:59:03.483Z,62.12
2018-09-21T04:02:08.845Z,62.24
2018-09-21T04:05:16.298Z,61.31
2018-09-21T04:08:21.769Z,61.10
2018-09-21T04:11:27.298Z,60.52
2018-09-21T04:14:32.702Z,60.45
2018-09-21T04:17:38.382Z,59.81
2018-09-21T04:20:45.934Z,60.39
2018-09-21T04:23:51.311Z,60.55
2018-09-21T04:26:56.774Z,60.61
2018-09-21T04:30:02.262Z,60.62
2018-09-21T04:33:08.026Z,60.29
2018-09-21T04:36:13.466Z,60.03
2018-09-21T04:39:19.237Z,60.28
2018-09-21T04:42:24.575Z,60.25
2018-09-21T04:45:30.426Z,59.98
2018-09-21T04:48:35.961Z,59.97
2018-09-21T04:51:41.706Z,60.42
2018-09-21T04:54:47.054Z,60.83
2018-09-21T04:57:52.548Z,60.39
2018-09-21T05:00:57.996Z,60.41
2018-09-21T05:04:03.364Z,60.21
2018-09-21T05:07:08.761Z,60.01
2018-09-21T05:10:14.122Z,60.99
2018-09-21T05:13:19.610Z,61.21
2018-09-21T05:16:25.034Z,60.34
2018-09-21T05:19:30.584Z,59.68
2018-09-21T05:22:35.921Z,60.18
2018-09-21T05:25:41.359Z,61.33
2018-09-21T05:28:46.978Z,60.89
2018-09-21T05:31:52.345Z,60.46
2018-09-21T05:34:57.848Z,60.26
2018-09-21T05:38:03.477Z,61.15
2018-09-21T05:41:08.958Z,61.33
2018-09-21T05:44:14.421Z,60.69
2018-09-21T05:47:20.003Z,61.58
2018-09-21T05:50:25.474Z,60.77
2018-09-21T05:53:30.827Z,61.24
2018-09-21T05:56:36.311Z,61.03
2018-09-21T05:59:41.738Z,61.89
2018-09-21T06:02:47.159Z,61.26
2018-09-21T06:05:52.742Z,61.41
2018-09-21T06:08:58.222Z,61.25
2018-09-21T06:12:03.694Z,60.56
2018-09-21T06:15:11.151Z,60.44
2018-09-21T06:18:16.814Z,60.30
2018-09-21T06:21:22.629Z,61.45
2018-09-21T06:24:28.030Z,60.65
2018-09-21T06:27:33.451Z,61.29
2018-09-21T06:30:38.871Z,61.18
2018-09-21T06:33:44.238Z,60.83
2018-09-21T06:36:49.627Z,61.06
2018-09-21T06:39:54.985Z,60.44
2018-09-21T06:43:00.325Z,60.28
2018-09-21T06:46:05.705Z,60.34
2018-09-21T06:49:11.141Z,59.99
2018-09-21T06:52:16.562Z,60.37
2018-09-21T06:55:21.937Z,60.20
2018-09-21T06:58:27.470Z,60.33
2018-09-21T07:01:32.962Z,59.26
2018-09-21T07:04:38.432Z,59.97
2018-09-21T07:07:44.227Z,59.58
2018-09-21T07:10:49.769Z,59.41
2018-09-21T07:13:55.146Z,58.90
2018-09-21T07:17:00.774Z,59.61
2018-09-21T07:20:06.331Z,59.29
2018-09-21T07:23:11.766Z,58.93
2018-09-21T07:26:17.170Z,57.90
2018-09-21T07:29:22.593Z,57.43
2018-09-21T07:32:28.047Z,57.21
2018-09-21T07:35:33.470Z,56.45
2018-09-21T07:38:38.894Z,56.60
2018-09-21T07:41:44.292Z,55.20
2018-09-21T07:44:49.943Z,55.13
2018-09-21T07:47:55.366Z,54.89
2018-09-21T07:51:00.746Z,54.23
2018-09-21T07:54:06.105Z,52.48
2018-09-21T07:57:11.508Z,52.17
2018-09-21T08:00:16.887Z,52.63
2018-09-21T08:03:22.316Z,51.82
2018-09-21T08:06:27.690Z,51.29
2018-09-21T08:09:34.703Z,49.59
2018-09-21T08:12:40.098Z,49.76
2018-09-21T08:15:45.490Z,50.03
2018-09-21T08:18:50.900Z,49.26
2018-09-21T08:21:56.322Z,50.15
2018-09-21T08:25:01.735Z,49.54
2018-09-21T08:28:07.322Z,49.58
2018-09-21T08:31:12.720Z,49.34
2018-09-21T08:34:18.049Z,48.11
2018-09-21T08:37:23.483Z,49.34
2018-09-21T08:40:29.203Z,48.68
2018-09-21T08:43:34.614Z,48.36
2018-09-21T08:46:40.449Z,48.56
2018-09-21T08:49:45.819Z,48.54
2018-09-21T08:52:51.179Z,48.32
2018-09-21T08:55:56.533Z,47.50
2018-09-21T08:59:02.411Z,48.03
2018-09-21T09:02:07.779Z,46.67
2018-09-21T09:05:13.222Z,47.25
2018-09-21T09:08:18.599Z,46.36
2018-09-21T09:11:23.977Z,45.71
2018-09-21T09:14:29.383Z,46.62
2018-09-21T09:17:34.750Z,46.83
2018-09-21T09:20:40.111Z,46.04
2018-09-21T09:23:45.606Z,46.27
2018-09-21T09:26:51.078Z,45.70
2018-09-21T09:29:56.496Z,45.65
2018-09-21T09:33:02.086Z,45.79
2018-09-21T09:36:07.524Z,45.66
2018-09-21T09:39:14.257Z,45.50
2018-09-21T09:42:20.175Z,44.38
2018-09-21T09:45:25.838Z,44.08
2018-09-21T09:48:31.263Z,43.75
2018-09-21T09:51:36.838Z,43.98
2018-09-21T09:54:42.301Z,45.08
2018-09-21T09:57:47.917Z,45.15
2018-09-21T10:00:54.280Z,45.89
2018-09-21T10:03:59.755Z,47.75
2018-09-21T10:07:05.709Z,47.27
2018-09-21T10:10:11.159Z,48.63
2018-09-21T10:13:16.758Z,49.07
2018-09-21T10:16:22.697Z,49.74
2018-09-21T10:19:28.308Z,49.46
2018-09-21T10:22:33.722Z,50.11
2018-09-21T10:25:39.086Z,51.11
2018-09-21T10:28:44.693Z,50.47
2018-09-21T10:31:50.132Z,51.62
2018-09-21T10:34:55.622Z,51.60
2018-09-21T10:38:01.017Z,52.19
2018-09-21T10:41:06.575Z,52.04
2018-09-21T10:44:11.954Z,53.24
2018-09-21T10:47:17.303Z,53.59
2018-09-21T10:50:22.842Z,53.72
2018-09-21T10:53:28.335Z,54.60
2018-09-21T10:56:33.754Z,58.47
2018-09-21T10:59:39.134Z,63.72
2018-09-21T11:02:44.522Z,66.46
2018-09-21T11:05:49.903Z,70.86
2018-09-21T11:08:55.321Z,75.08
2018-09-21T11:12:00.726Z,76.82
2018-09-21T11:15:06.196Z,76.72
2018-09-21T11:18:11.629Z,76.56
2018-09-21T11:21:16.986Z,78.18
2018-09-21T11:24:22.366Z,79.11
2018-09-21T11:27:27.775Z,79.77
2018-09-21T11:30:33.171Z,83.73
2018-09-21T11:33:38.601Z,83.13
2018-09-21T11:36:43.958Z,86.36
2018-09-21T11:39:49.351Z,87.03
2018-09-21T11:42:54.708Z,85.48
2018-09-21T11:46:00.133Z,86.72
2018-09-21T11:49:05.754Z,85.60
2018-09-21T11:52:11.167Z,86.83
2018-09-21T11:55:16.597Z,85.55
2018-09-21T11:58:21.981Z,84.10
2018-09-21T12:01:27.445Z,83.63
2018-09-21T12:04:32.845Z,83.40
2018-09-21T12:07:38.210Z,83.72
2018-09-21T12:10:43.648Z,84.95
2018-09-21T12:13:50.859Z,84.92
2018-09-21T12:16:56.245Z,85.10
2018-09-21T12:20:01.928Z,83.72
2018-09-21T12:23:07.598Z,84.04
2018-09-21T12:26:12.998Z,82.79
2018-09-21T12:29:18.491Z,83.62
2018-09-21T12:32:23.879Z,82.95
2018-09-21T12:35:29.245Z,83.87
2018-09-21T12:38:35.007Z,82.98
2018-09-21T12:41:40.559Z,84.66
2018-09-21T12:44:46.375Z,82.68
2018-09-21T12:47:51.972Z,83.48
2018-09-21T12:50:57.399Z,84.00
2018-09-21T12:54:02.955Z,84.60
2018-09-21T12:57:08.647Z,85.10
2018-09-21T13:00:14.022Z,82.70
2018-09-21T13:03:19.730Z,82.37
2018-09-21T13:06:25.124Z,82.23
2018-09-21T13:09:30.701Z,82.42
2018-09-21T13:12:37.692Z,81.67
2018-09-21T13:15:43.047Z,81.08
2018-09-21T13:18:48.398Z,82.40
2018-09-21T13:21:53.749Z,81.26
2018-09-21T13:24:59.106Z,82.30
2018-09-21T13:28:04.617Z,82.16
2018-09-21T13:31:10.363Z,79.90
2018-09-21T13:34:25.108Z,79.85
2018-09-21T13:37:30.570Z,80.39
2018-09-21T13:40:35.917Z,80.12
2018-09-21T13:43:41.245Z,78.92
2018-09-21T13:46:46.594Z,78.59
2018-09-21T13:49:52.090Z,79.24
2018-09-21T13:52:57.410Z,79.77
2018-09-21T13:56:02.897Z,80.85
2018-09-21T13:59:08.298Z,77.73
2018-09-21T14:02:13.850Z,75.45
2018-09-21T14:05:19.260Z,73.88
2018-09-21T14:08:24.902Z,69.54
2018-09-21T14:11:30.278Z,66.24
2018-09-21T14:14:35.598Z,66.29
2018-09-21T14:17:41.056Z,64.00
2018-09-21T14:20:46.487Z,63.35
2018-09-21T14:23:51.834Z,63.97
2018-09-21T14:26:57.305Z,62.73
2018-09-21T14:30:02.774Z,62.97
2018-09-21T14:33:08.369Z,61.90
2018-09-21T14:36:13.720Z,61.31
2018-09-21T14:39:19.069Z,61.75
2018-09-21T14:42:24.542Z,62.03
2018-09-21T14:45:29.883Z,60.63
2018-09-21T14:48:35.336Z,61.22
2018-09-21T14:51:40.709Z,59.15
2018-09-21T14:54:46.038Z,58.54
2018-09-21T14:57:51.533Z,58.49
2018-09-21T15:00:56.926Z,59.76
2018-09-21T15:04:02.478Z,58.36
2018-09-21T15:07:07.958Z,57.10
2018-09-21T15:10:13.286Z,55.87
2018-09-21T15:13:18.638Z,56.97
2018-09-21T15:16:24.265Z,54.74
2018-09-21T15:19:29.768Z,56.58
2018-09-21T15:22:46.822Z,55.96
2018-09-21T15:25:52.177Z,54.22
2018-09-21T15:28:57.751Z,53.13
2018-09-21T15:32:03.180Z,54.23
2018-09-21T15:35:08.549Z,54.83
2018-09-21T15:38:13.982Z,53.97
2018-09-21T15:41:21.299Z,55.43
2018-09-21T15:44:26.642Z,55.95
2018-09-21T15:47:32.067Z,57.06
2018-09-21T15:50:37.428Z,58.92
2018-09-21T15:53:42.798Z,60.43
2018-09-21T15:56:48.165Z,62.57
2018-09-21T15:59:53.550Z,62.03
2018-09-21T16:02:59.005Z,62.45
2018-09-21T16:06:04.768Z,59.94
2018-09-21T16:09:10.290Z,56.47
2018-09-21T16:12:15.666Z,55.39
2018-09-21T16:15:21.026Z,53.38
2018-09-21T16:18:26.398Z,54.24
2018-09-21T16:21:31.771Z,53.29
2018-09-21T16:24:37.120Z,53.08
2018-09-21T16:27:42.494Z,53.04
2018-09-21T16:30:47.928Z,52.54
2018-09-21T16:33:53.344Z,52.00
2018-09-21T16:37:00.806Z,52.47
2018-09-21T16:40:06.202Z,52.58
2018-09-21T16:43:12.441Z,52.18
2018-09-21T16:46:23.866Z,52.77
2018-09-21T16:49:29.327Z,52.73
2018-09-21T16:52:34.777Z,52.44
2018-09-21T16:55:40.238Z,52.35
2018-09-21T16:58:45.648Z,52.65
2018-09-21T17:01:51.158Z,51.91
2018-09-21T17:04:56.570Z,51.81
2018-09-21T17:08:02.077Z,52.39
2018-09-21T17:11:07.822Z,52.19
2018-09-21T17:14:13.750Z,51.61
2018-09-21T17:17:19.129Z,52.74
2018-09-21T17:20:24.487Z,53.36
2018-09-21T17:23:29.842Z,52.58
2018-09-21T17:26:35.184Z,52.86
2018-09-21T17:29:40.761Z,53.98
2018-09-21T17:32:46.139Z,53.99
2018-09-21T17:35:51.490Z,51.97
2018-09-21T17:38:56.853Z,51.70
2018-09-21T17:42:02.176Z,52.60
2018-09-21T17:45:08.058Z,51.80
2018-09-21T17:48:13.401Z,51.18
2018-09-21T17:51:18.767Z,50.92
2018-09-21T17:54:24.121Z,51.18
2018-09-21T17:57:29.550Z,51.73
2018-09-21T18:00:34.915Z,51.54
2018-09-21T18:03:40.291Z,51.37
2018-09-21T18:06:46.565Z,51.67
2018-09-21T18:09:53.265Z,51.99
2018-09-21T18:12:58.588Z,51.92
2018-09-21T18:16:04.341Z,51.24
2018-09-21T18:19:09.859Z,51.21
2018-09-21T18:22:15.188Z,50.68
2018-09-21T18:25:20.528Z,50.52
2018-09-21T18:28:25.942Z,50.61
2018-09-21T18:31:31.351Z,52.30
2018-09-21T18:34:36.956Z,52.50
2018-09-21T18:37:42.318Z,51.85
2018-09-21T18:40:47.947Z,52.35
2018-09-21T18:43:53.501Z,51.38
2018-09-21T18:46:58.874Z,49.81
2018-09-21T18:50:04.294Z,50.78
2018-09-21T18:53:09.730Z,50.28
2018-09-21T18:56:15.090Z,50.46
2018-09-21T18:59:20.449Z,50.50
2018-09-21T19:02:25.893Z,50.60
2018-09-21T19:05:31.283Z,50.77
2018-09-21T19:08:37.026Z,49.65
2018-09-21T19:11:42.423Z,49.97
2018-09-21T19:14:47.769Z,50.48
2018-09-21T19:17:53.146Z,50.95
2018-09-21T19:20:58.646Z,50.75
2018-09-21T19:24:03.984Z,50.46
2018-09-21T19:27:09.369Z,50.20
2018-09-21T19:30:14.739Z,50.87
2018-09-21T19:33:20.261Z,51.47
2018-09-21T19:36:25.641Z,50.80
2018-09-21T19:39:30.991Z,50.97
2018-09-21T19:42:36.617Z,51.08
2018-09-21T19:45:42.189Z,51.27
2018-09-21T19:48:47.708Z,51.44
2018-09-21T19:51:53.037Z,51.54
2018-09-21T19:54:58.458Z,52.18
2018-09-21T19:58:04.010Z,52.96
2018-09-21T20:01:09.347Z,52.35
2018-09-21T20:04:14.852Z,52.99
2018-09-21T20:07:20.385Z,52.58
2018-09-21T20:10:25.823Z,52.74
2018-09-21T20:13:31.169Z,53.93
2018-09-21T20:16:36.610Z,54.07
2018-09-21T20:19:42.190Z,54.03
2018-09-21T20:22:47.514Z,54.82
2018-09-21T20:25:52.992Z,54.37
2018-09-21T20:28:58.502Z,55.58
2018-09-21T20:32:09.190Z,55.55
2018-09-21T20:35:14.574Z,56.15
2018-09-21T20:38:20.029Z,56.48
2018-09-21T20:41:25.513Z,56.54
2018-09-21T20:44:30.865Z,57.63
2018-09-21T20:47:37.459Z,58.62
2018-09-21T20:50:44.986Z,59.65
2018-09-21T20:53:50.370Z,59.40
2018-09-21T20:56:55.760Z,59.35
2018-09-21T21:00:01.150Z,60.30
2018-09-21T21:03:06.554Z,60.83
2018-09-21T21:06:11.914Z,60.60
2018-09-21T21:09:17.363Z,61.51
2018-09-21T21:12:22.685Z,61.79
2018-09-21T21:15:28.054Z,61.77
2018-09-21T21:18:33.825Z,62.20
2018-09-21T21:21:39.208Z,62.92
2018-09-21T21:24:44.570Z,63.29
2018-09-21T21:27:50.148Z,63.16
2018-09-21T21:30:55.557Z,63.27
2018-09-21T21:34:00.942Z,64.21
2018-09-21T21:37:06.682Z,64.46
2018-09-21T21:40:12.066Z,64.72
2018-09-21T21:43:17.399Z,64.50
2018-09-21T21:46:22.757Z,65.54
2018-09-21T21:49:28.189Z,65.91
2018-09-21T21:52:36.320Z,66.03
2018-09-21T21:55:41.876Z,65.72
2018-09-21T21:58:47.298Z,66.12
2018-09-21T22:01:52.687Z,65.61
2018-09-21T22:04:58.042Z,66.47
2018-09-21T22:08:03.394Z,66.78
2018-09-21T22:11:12.804Z,66.92
2018-09-21T22:14:18.129Z,67.09
2018-09-21T22:17:23.553Z,67.46
2018-09-21T22:20:28.894Z,67.91
2018-09-21T22:23:34.208Z,67.57
2018-09-21T22:26:39.556Z,68.23
2018-09-21T22:29:44.878Z,68.86
2018-09-21T22:32:50.249Z,69.04
2018-09-21T22:35:55.617Z,69.25
2018-09-21T22:39:01.755Z,69.65
2018-09-21T22:42:07.746Z,70.19
2018-09-21T22:45:13.165Z,69.90
2018-09-21T22:48:18.588Z,70.43
2018-09-21T22:51:23.987Z,70.58
2018-09-21T22:54:29.321Z,70.66
2018-09-21T22:57:34.769Z,70.58
2018-09-21T23:00:40.229Z,71.00
2018-09-21T23:03:45.604Z,70.68
2018-09-21T23:06:50.978Z,71.03
2018-09-21T23:09:56.317Z,70.86
2018-09-21T23:13:01.683Z,70.77
2018-09-21T23:16:07.204Z,71.34
2018-09-21T23:19:12.643Z,71.97
2018-09-21T23:22:18.069Z,72.17
2018-09-21T23:25:23.534Z,72.05
2018-09-21T23:28:28.966Z,72.29
2018-09-21T23:31:34.433Z,72.44
2018-09-21T23:34:39.783Z,72.82
2018-09-21T23:37:45.497Z,73.58
2018-09-21T23:40:51.206Z,73.65
2018-09-21T23:43:56.540Z,73.54
2018-09-21T23:47:02.005Z,74.28
2018-09-21T23:50:07.427Z,74.34
2018-09-21T23:53:12.857Z,74.13
2018-09-21T23:56:18.290Z,73.72
2018-09-21T23:59:23.729Z,74.39
